createdAt,value
2019-03-24T00:00:22.163Z,88.49
2019-03-24T00:02:53.250Z,88.32
2019-03-24T00:05:24.418Z,88.38
2019-03-24T00:07:56.918Z,88.12
2019-03-24T00:10:28.107Z,88.27
2019-03-24T00:12:59.072Z,88.73
2019-03-24T00:15:30.230Z,88.51
2019-03-24T00:18:01.223Z,89.38
2019-03-24T00:20:32.198Z,89.18
2019-03-24T00:23:03.247Z,89.42
2019-03-24T00:25:34.164Z,89.67
2019-03-24T00:28:05.166Z,89.77
2019-03-24T00:30:36.435Z,89.98
2019-03-24T00:33:07.569Z,90.34
2019-03-24T00:35:38.621Z,89.97
2019-03-24T00:38:09.596Z,90.31
2019-03-24T00:40:40.643Z,91.19
2019-03-24T00:43:11.753Z,90.76
2019-03-24T00:45:43.395Z,90.57
2019-03-24T00:48:14.521Z,90.68
2019-03-24T00:50:45.533Z,90.41
2019-03-24T00:53:16.447Z,90.36
2019-03-24T00:55:47.431Z,91.15
2019-03-24T00:58:18.594Z,91.34
2019-03-24T01:00:51.663Z,91.75
2019-03-24T01:03:22.788Z,92.03
2019-03-24T01:05:53.746Z,91.40
2019-03-24T01:08:25.069Z,91.13
2019-03-24T01:10:55.907Z,91.22
2019-03-24T01:13:27.220Z,91.71
2019-03-24T01:15:58.269Z,92.19
2019-03-24T01:18:29.281Z,91.99
2019-03-24T01:21:00.326Z,92.21
2019-03-24T01:23:31.354Z,92.67
2019-03-24T01:26:02.424Z,92.77
2019-03-24T01:28:33.451Z,93.32
2019-03-24T01:31:04.681Z,93.63
2019-03-24T01:33:37.034Z,94.04
2019-03-24T01:36:08.031Z,94.56
2019-03-24T01:38:39.002Z,94.76
2019-03-24T01:41:09.948Z,95.26
2019-03-24T01:43:41.176Z,95.23
2019-03-24T01:46:12.100Z,95.50
2019-03-24T01:48:43.108Z,95.42
2019-03-24T01:51:14.353Z,95.25
2019-03-24T01:53:45.322Z,95.74
2019-03-24T01:56:16.376Z,96.33
2019-03-24T01:58:47.445Z,96.53
2019-03-24T02:01:18.429Z,96.96
2019-03-24T02:03:49.445Z,97.52
2019-03-24T02:06:20.533Z,97.91
2019-03-24T02:08:51.502Z,98.17
2019-03-24T02:11:22.603Z,98.47
2019-03-24T02:13:53.582Z,99.06
2019-03-24T02:16:24.613Z,99.52
2019-03-24T02:18:55.632Z,99.39
2019-03-24T02:21:26.680Z,99.65
2019-03-24T02:23:57.779Z,99.98
2019-03-24T02:26:28.861Z,100.00
2019-03-24T02:29:00.026Z,100.00
2019-03-24T02:31:30.996Z,100.00
2019-03-24T02:34:01.999Z,100.00
2019-03-24T02:36:34.642Z,100.00
2019-03-24T02:39:07.628Z,100.00
2019-03-24T02:41:38.620Z,100.00
2019-03-24T02:44:09.545Z,100.00
2019-03-24T02:46:40.521Z,100.00
2019-03-24T02:49:11.462Z,100.00
2019-03-24T02:51:42.446Z,100.00
2019-03-24T02:54:13.855Z,100.00
2019-03-24T02:56:45.004Z,100.00
2019-03-24T02:59:16.030Z,100.00
2019-03-24T03:01:47.115Z,100.00
2019-03-24T03:04:18.088Z,100.00
2019-03-24T03:06:49.117Z,100.00
2019-03-24T03:09:20.078Z,100.00
2019-03-24T03:11:51.093Z,100.00
2019-03-24T03:14:22.225Z,100.00
2019-03-24T03:16:53.288Z,100.00
2019-03-24T03:19:24.364Z,100.00
2019-03-24T03:21:55.255Z,100.00
2019-03-24T03:24:26.245Z,100.00
2019-03-24T03:26:57.242Z,100.00
2019-03-24T03:29:28.293Z,100.00
2019-03-24T03:31:59.421Z,100.00
2019-03-24T03:34:30.472Z,100.00
2019-03-24T03:37:01.540Z,100.00
2019-03-24T03:39:32.678Z,100.00
2019-03-24T03:42:03.727Z,100.00
2019-03-24T03:44:34.817Z,100.00
2019-03-24T03:47:05.921Z,100.00
2019-03-24T03:49:36.849Z,100.00
2019-03-24T03:52:07.933Z,100.00
2019-03-24T03:54:38.894Z,100.00
2019-03-24T03:57:10.035Z,100.00
2019-03-24T03:59:41.181Z,100.00
2019-03-24T04:02:12.122Z,100.00
2019-03-24T04:04:43.162Z,100.00
2019-03-24T04:07:14.127Z,100.00
2019-03-24T04:09:45.116Z,100.00
2019-03-24T04:12:16.080Z,100.00
2019-03-24T04:14:47.160Z,100.00
2019-03-24T04:17:18.179Z,100.00
2019-03-24T04:19:49.086Z,100.00
2019-03-24T04:22:20.042Z,100.00
2019-03-24T04:24:51.074Z,100.00
2019-03-24T04:27:22.036Z,100.00
2019-03-24T04:29:52.988Z,100.00
2019-03-24T04:32:23.871Z,100.00
2019-03-24T04:34:54.923Z,100.00
2019-03-24T04:37:25.884Z,100.00
2019-03-24T04:39:57.229Z,100.00
2019-03-24T04:42:28.180Z,100.00
2019-03-24T04:44:59.122Z,100.00
2019-03-24T04:47:30.189Z,100.00
2019-03-24T04:50:01.189Z,100.00
2019-03-24T04:52:32.127Z,100.00
2019-03-24T04:55:03.176Z,100.00
2019-03-24T04:57:34.217Z,100.00
2019-03-24T05:00:07.934Z,100.00
2019-03-24T05:02:39.019Z,100.00
2019-03-24T05:05:10.430Z,100.00
2019-03-24T05:07:41.897Z,100.00
2019-03-24T05:10:27.054Z,100.00
2019-03-24T05:12:58.291Z,100.00
2019-03-24T05:15:29.323Z,100.00
2019-03-24T05:18:00.381Z,100.00
2019-03-24T05:20:31.284Z,100.00
2019-03-24T05:23:02.271Z,100.00
2019-03-24T05:25:33.227Z,100.00
2019-03-24T05:28:04.224Z,100.00
2019-03-24T05:30:35.095Z,100.00
2019-03-24T05:33:06.335Z,100.00
2019-03-24T05:35:39.969Z,100.00
2019-03-24T05:38:11.459Z,100.00
2019-03-24T05:40:42.802Z,100.00
2019-03-24T05:43:13.824Z,100.00
2019-03-24T05:45:44.869Z,100.00
2019-03-24T05:48:16.000Z,100.00
2019-03-24T05:50:47.029Z,100.00
2019-03-24T05:53:18.007Z,100.00
2019-03-24T05:55:48.981Z,100.00
2019-03-24T05:58:20.128Z,100.00
2019-03-24T06:00:51.111Z,100.00
2019-03-24T06:03:22.583Z,100.00
2019-03-24T06:05:53.603Z,100.00
2019-03-24T06:08:24.757Z,100.00
2019-03-24T06:10:55.902Z,100.00
2019-03-24T06:13:27.039Z,100.00
2019-03-24T06:15:58.447Z,100.00
2019-03-24T06:18:31.734Z,100.00
2019-03-24T06:21:02.895Z,100.00
2019-03-24T06:23:34.267Z,100.00
2019-03-24T06:26:05.304Z,100.00
2019-03-24T06:28:36.378Z,100.00
2019-03-24T06:31:07.425Z,100.00
2019-03-24T06:33:38.786Z,100.00
2019-03-24T06:36:09.959Z,100.00
2019-03-24T06:38:41.213Z,100.00
2019-03-24T06:41:12.157Z,100.00
2019-03-24T06:43:43.093Z,98.53
2019-03-24T06:46:18.217Z,98.00
2019-03-24T06:48:49.216Z,97.62
2019-03-24T06:51:20.419Z,96.68
2019-03-24T06:53:51.409Z,95.96
2019-03-24T06:56:22.382Z,95.05
2019-03-24T06:58:53.531Z,94.26
2019-03-24T07:01:24.529Z,93.50
2019-03-24T07:03:56.351Z,92.51
2019-03-24T07:06:27.385Z,90.88
2019-03-24T07:08:58.468Z,90.19
2019-03-24T07:11:29.570Z,89.99
2019-03-24T07:14:00.486Z,88.05
2019-03-24T07:16:31.532Z,86.43
2019-03-24T07:19:02.627Z,85.57
2019-03-24T07:21:33.532Z,84.56
2019-03-24T07:24:04.749Z,84.38
2019-03-24T07:26:35.706Z,84.09
2019-03-24T07:29:06.795Z,82.06
2019-03-24T07:31:37.974Z,80.93
2019-03-24T07:34:09.198Z,80.81
2019-03-24T07:36:40.360Z,79.36
2019-03-24T07:39:11.352Z,79.23
2019-03-24T07:41:42.385Z,77.63
2019-03-24T07:44:13.675Z,75.63
2019-03-24T07:46:44.784Z,75.15
2019-03-24T07:49:17.378Z,74.92
2019-03-24T07:51:48.453Z,74.23
2019-03-24T07:54:19.673Z,73.16
2019-03-24T07:56:50.806Z,72.21
2019-03-24T07:59:21.790Z,70.89
2019-03-24T08:01:52.802Z,69.62
2019-03-24T08:04:23.714Z,69.86
2019-03-24T08:06:55.004Z,69.01
2019-03-24T08:09:26.017Z,66.46
2019-03-24T08:11:57.061Z,66.63
2019-03-24T08:14:28.570Z,66.46
2019-03-24T08:17:06.986Z,65.79
2019-03-24T08:19:38.074Z,64.90
2019-03-24T08:22:09.177Z,65.37
2019-03-24T08:24:40.206Z,64.46
2019-03-24T08:27:11.227Z,63.78
2019-03-24T08:29:42.390Z,62.67
2019-03-24T08:32:13.491Z,62.28
2019-03-24T08:34:44.941Z,61.68
2019-03-24T08:37:16.215Z,61.64
2019-03-24T08:39:47.172Z,61.24
2019-03-24T08:42:18.213Z,59.96
2019-03-24T08:44:49.618Z,59.94
2019-03-24T08:47:24.352Z,58.98
2019-03-24T08:49:55.373Z,58.67
2019-03-24T08:52:26.806Z,59.11
2019-03-24T08:54:59.864Z,58.33
2019-03-24T08:57:32.427Z,57.21
2019-03-24T09:00:04.169Z,57.11
2019-03-24T09:02:35.281Z,56.03
2019-03-24T09:05:07.516Z,57.70
2019-03-24T09:07:38.581Z,56.87
2019-03-24T09:10:10.047Z,56.37
2019-03-24T09:12:41.276Z,54.89
2019-03-24T09:15:13.554Z,55.05
2019-03-24T09:17:45.076Z,53.93
2019-03-24T09:20:16.564Z,54.17
2019-03-24T09:22:47.649Z,53.66
2019-03-24T09:25:18.787Z,51.42
2019-03-24T09:27:50.074Z,50.72
2019-03-24T09:30:34.448Z,49.40
2019-03-24T09:33:06.304Z,48.82
2019-03-24T09:35:37.454Z,48.01
2019-03-24T09:38:08.730Z,46.90
2019-03-24T09:40:41.641Z,46.75
2019-03-24T09:43:14.014Z,46.24
2019-03-24T09:45:45.634Z,46.56
2019-03-24T09:48:16.803Z,46.66
2019-03-24T09:50:47.912Z,45.30
2019-03-24T09:53:18.952Z,43.86
2019-03-24T09:55:50.097Z,44.05
2019-03-24T09:58:21.022Z,43.92
2019-03-24T10:00:53.809Z,45.29
2019-03-24T10:03:24.955Z,46.82
2019-03-24T10:05:56.463Z,46.21
2019-03-24T10:08:27.401Z,44.64
2019-03-24T10:11:00.100Z,44.28
2019-03-24T10:13:32.675Z,45.17
2019-03-24T10:16:22.458Z,44.87
2019-03-24T10:18:53.228Z,42.18
2019-03-24T10:21:24.254Z,43.60
2019-03-24T10:23:55.455Z,44.97
2019-03-24T10:26:26.663Z,44.99
2019-03-24T10:28:57.661Z,45.77
2019-03-24T10:31:28.629Z,45.21
2019-03-24T10:33:59.826Z,43.64
2019-03-24T10:36:30.994Z,41.85
2019-03-24T10:39:02.238Z,39.54
2019-03-24T10:41:33.398Z,39.54
2019-03-24T10:44:04.443Z,38.81
2019-03-24T10:46:35.613Z,38.14
2019-03-24T10:49:06.955Z,37.58
2019-03-24T10:51:38.255Z,37.31
2019-03-24T10:54:09.937Z,35.90
2019-03-24T10:56:41.091Z,36.01
2019-03-24T10:59:12.371Z,36.40
2019-03-24T11:01:44.152Z,36.37
2019-03-24T11:04:16.011Z,36.15
2019-03-24T11:06:47.177Z,34.88
2019-03-24T11:09:18.255Z,34.00
2019-03-24T11:11:49.597Z,33.20
2019-03-24T11:14:21.680Z,34.00
2019-03-24T11:16:52.677Z,33.22
2019-03-24T11:19:23.747Z,33.23
2019-03-24T11:22:00.484Z,34.28
2019-03-24T11:24:31.696Z,36.63
2019-03-24T11:27:02.621Z,35.43
2019-03-24T11:29:33.642Z,36.68
2019-03-24T11:32:04.750Z,35.89
2019-03-24T11:34:35.873Z,37.15
2019-03-24T11:37:07.701Z,37.05
2019-03-24T11:39:38.662Z,38.78
2019-03-24T11:42:10.086Z,37.92
2019-03-24T11:44:41.059Z,38.14
2019-03-24T11:47:12.318Z,39.87
2019-03-24T11:49:46.279Z,38.40
2019-03-24T11:52:16.258Z,36.21
2019-03-24T11:54:47.274Z,34.76
2019-03-24T11:57:18.428Z,32.69
2019-03-24T11:59:50.633Z,33.84
2019-03-24T12:02:22.032Z,34.46
2019-03-24T12:04:53.100Z,34.27
2019-03-24T12:07:25.741Z,34.38
2019-03-24T12:09:57.048Z,35.15
2019-03-24T12:12:28.054Z,34.52
2019-03-24T12:14:59.140Z,33.85
2019-03-24T12:17:30.260Z,33.54
2019-03-24T12:20:01.416Z,34.77
2019-03-24T12:22:32.440Z,35.73
2019-03-24T12:25:06.662Z,36.16
2019-03-24T12:27:37.961Z,34.98
2019-03-24T12:30:10.279Z,33.02
2019-03-24T12:32:41.718Z,33.38
2019-03-24T12:35:12.927Z,33.97
2019-03-24T12:37:44.183Z,32.98
2019-03-24T12:40:15.651Z,34.38
2019-03-24T12:42:46.982Z,37.74
2019-03-24T12:45:18.061Z,37.75
2019-03-24T12:47:49.208Z,37.39
2019-03-24T12:50:31.052Z,38.17
2019-03-24T12:52:52.939Z,38.72
2019-03-24T12:55:23.975Z,39.08
2019-03-24T12:57:54.952Z,38.88
2019-03-24T13:00:34.144Z,36.45
2019-03-24T13:03:05.678Z,33.71
2019-03-24T13:05:36.852Z,32.98
2019-03-24T13:08:15.409Z,32.88
2019-03-24T13:10:47.461Z,32.88
2019-03-24T13:13:18.764Z,33.78
2019-03-24T13:15:50.191Z,33.98
2019-03-24T13:18:21.399Z,35.20
2019-03-24T13:20:52.528Z,35.33
2019-03-24T13:23:23.560Z,35.24
2019-03-24T13:25:55.261Z,37.90
2019-03-24T13:28:27.755Z,38.48
2019-03-24T13:30:58.826Z,39.44
2019-03-24T13:33:30.217Z,40.01
2019-03-24T13:36:08.747Z,41.80
2019-03-24T13:38:39.642Z,44.96
2019-03-24T13:41:10.771Z,46.58
2019-03-24T13:43:41.955Z,47.92
2019-03-24T13:46:13.122Z,49.52
2019-03-24T13:48:44.257Z,48.68
2019-03-24T13:51:15.935Z,47.10
2019-03-24T13:53:46.952Z,49.06
2019-03-24T13:56:17.995Z,49.84
2019-03-24T13:58:50.938Z,46.56
2019-03-24T14:01:22.040Z,42.20
2019-03-24T14:03:52.966Z,42.20
2019-03-24T14:06:30.126Z,40.73
2019-03-24T14:09:01.826Z,40.45
2019-03-24T14:11:32.949Z,40.99
2019-03-24T14:14:04.021Z,43.99
2019-03-24T14:16:35.034Z,48.07
2019-03-24T14:19:06.056Z,50.20
2019-03-24T14:21:39.914Z,51.09
2019-03-24T14:24:11.029Z,52.47
2019-03-24T14:26:52.682Z,53.71
2019-03-24T14:29:23.979Z,53.46
2019-03-24T14:31:55.385Z,52.80
2019-03-24T14:34:26.605Z,52.82
2019-03-24T14:36:57.683Z,52.77
2019-03-24T14:39:30.294Z,52.86
2019-03-24T14:42:01.484Z,52.90
2019-03-24T14:44:32.469Z,52.96
2019-03-24T14:47:05.043Z,51.44
2019-03-24T14:49:36.091Z,50.26
2019-03-24T14:52:07.336Z,48.04
2019-03-24T14:54:38.379Z,46.93
2019-03-24T14:57:09.528Z,48.76
2019-03-24T14:59:40.675Z,50.46
2019-03-24T15:02:11.961Z,52.78
2019-03-24T15:04:46.096Z,54.37
2019-03-24T15:07:17.037Z,55.46
2019-03-24T15:09:48.196Z,56.92
2019-03-24T15:12:22.265Z,57.88
2019-03-24T15:14:53.493Z,58.96
2019-03-24T15:17:24.601Z,58.83
2019-03-24T15:19:55.938Z,57.11
2019-03-24T15:22:26.945Z,55.42
2019-03-24T15:24:58.492Z,55.70
2019-03-24T15:27:32.935Z,56.87
2019-03-24T15:30:11.438Z,58.22
2019-03-24T15:32:41.534Z,59.99
2019-03-24T15:35:12.698Z,61.47
2019-03-24T15:37:45.684Z,62.60
2019-03-24T15:40:16.944Z,63.21
2019-03-24T15:42:49.502Z,63.76
2019-03-24T15:45:20.494Z,63.66
2019-03-24T15:47:53.231Z,63.93
2019-03-24T15:53:24.926Z,64.73
2019-03-24T15:55:55.887Z,64.56
2019-03-24T15:58:26.830Z,65.21
2019-03-24T16:00:57.869Z,65.46
2019-03-24T16:03:29.097Z,66.17
2019-03-24T16:06:00.198Z,66.13
2019-03-24T16:08:31.088Z,66.22
2019-03-24T16:11:02.137Z,66.76
2019-03-24T16:13:34.982Z,67.45
2019-03-24T16:16:06.216Z,68.06
2019-03-24T16:18:37.311Z,68.38
2019-03-24T16:21:08.435Z,68.28
2019-03-24T16:23:39.833Z,68.40
2019-03-24T16:26:11.077Z,68.85
2019-03-24T16:28:42.314Z,68.86
2019-03-24T16:31:13.367Z,68.68
2019-03-24T16:33:44.393Z,68.59
2019-03-24T16:36:15.614Z,68.91
2019-03-24T16:38:49.106Z,69.57
2019-03-24T16:41:20.310Z,70.03
2019-03-24T16:43:51.876Z,70.37
2019-03-24T16:46:42.380Z,70.82
2019-03-24T16:49:13.465Z,71.62
2019-03-24T16:51:44.394Z,72.21
2019-03-24T16:54:15.768Z,73.01
2019-03-24T16:56:46.767Z,73.48
2019-03-24T16:59:18.355Z,73.25
2019-03-24T17:02:02.962Z,73.49
2019-03-24T17:04:45.833Z,73.74
2019-03-24T17:07:41.200Z,73.87
2019-03-24T17:10:39.527Z,74.11
2019-03-24T17:13:08.054Z,73.54
2019-03-24T17:15:39.150Z,73.55
2019-03-24T17:18:10.659Z,73.52
2019-03-24T17:20:48.056Z,73.56
2019-03-24T17:23:24.350Z,73.28
2019-03-24T17:25:55.630Z,73.77
2019-03-24T17:28:28.381Z,74.12
2019-03-24T17:30:59.620Z,74.22
2019-03-24T17:33:31.859Z,74.54
2019-03-24T17:36:03.327Z,74.75
2019-03-24T17:38:34.319Z,74.64
2019-03-24T17:41:05.576Z,75.55
2019-03-24T17:43:36.719Z,76.15
2019-03-24T17:46:08.021Z,76.48
2019-03-24T17:48:39.053Z,76.64
2019-03-24T17:51:10.280Z,77.23
2019-03-24T17:53:41.412Z,77.93
2019-03-24T17:56:12.356Z,78.64
2019-03-24T17:58:45.486Z,78.48
2019-03-24T18:01:16.373Z,79.14
2019-03-24T18:03:49.088Z,79.56
2019-03-24T18:06:20.197Z,79.87
2019-03-24T18:08:51.196Z,79.78
2019-03-24T18:11:22.279Z,80.41
2019-03-24T18:13:53.342Z,80.51
2019-03-24T18:16:24.463Z,80.68
2019-03-24T18:19:05.075Z,80.75
2019-03-24T18:21:36.128Z,80.11
2019-03-24T18:24:07.374Z,80.63
2019-03-24T18:26:40.960Z,80.62
2019-03-24T18:29:12.311Z,80.67
2019-03-24T18:31:43.566Z,79.64
2019-03-24T18:34:15.255Z,79.75
2019-03-24T18:36:46.201Z,80.65
2019-03-24T18:39:17.955Z,80.05
2019-03-24T18:41:49.012Z,80.44
2019-03-24T18:44:20.444Z,80.63
2019-03-24T18:46:53.318Z,80.67
2019-03-24T18:49:39.732Z,80.02
2019-03-24T18:52:22.367Z,80.12
2019-03-24T18:54:45.595Z,79.80
2019-03-24T18:57:17.244Z,79.18
2019-03-24T18:59:48.495Z,79.03
2019-03-24T19:02:19.499Z,78.82
2019-03-24T19:04:50.505Z,78.08
2019-03-24T19:07:21.492Z,76.95
2019-03-24T19:09:52.649Z,76.35
2019-03-24T19:12:26.425Z,76.12
2019-03-24T19:14:57.815Z,75.90
2019-03-24T19:17:28.836Z,76.00
2019-03-24T19:19:59.876Z,76.03
2019-03-24T19:22:33.772Z,75.88
2019-03-24T19:25:05.642Z,76.39
2019-03-24T19:27:37.951Z,76.44
2019-03-24T19:30:14.925Z,76.41
2019-03-24T19:32:46.944Z,76.75
2019-03-24T19:35:18.166Z,76.43
2019-03-24T19:37:49.925Z,76.58
2019-03-24T19:40:29.757Z,76.10
2019-03-24T19:43:01.606Z,75.62
2019-03-24T19:45:32.743Z,75.90
2019-03-24T19:48:03.974Z,76.03
2019-03-24T19:50:34.945Z,76.34
2019-03-24T19:53:06.139Z,76.73
2019-03-24T19:55:37.475Z,76.65
2019-03-24T19:58:10.905Z,77.07
2019-03-24T20:00:41.960Z,76.57
2019-03-24T20:03:14.358Z,76.43
2019-03-24T20:05:45.333Z,76.66
2019-03-24T20:08:16.710Z,76.52
2019-03-24T20:10:48.478Z,76.46
2019-03-24T20:13:19.628Z,76.73
2019-03-24T20:15:50.653Z,77.03
2019-03-24T20:18:23.240Z,77.35
2019-03-24T20:20:55.806Z,77.34
2019-03-24T20:23:26.895Z,77.54
2019-03-24T20:25:58.230Z,77.69
2019-03-24T20:28:29.257Z,77.75
2019-03-24T20:31:02.059Z,78.21
2019-03-24T20:33:33.076Z,78.19
2019-03-24T20:36:04.063Z,78.29
2019-03-24T20:38:35.459Z,78.74
2019-03-24T20:41:06.660Z,78.75
2019-03-24T20:43:37.729Z,78.50
2019-03-24T20:46:08.696Z,78.58
2019-03-24T20:48:39.729Z,78.73
2019-03-24T20:51:10.686Z,78.76
2019-03-24T20:53:41.660Z,79.13
2019-03-24T20:56:12.857Z,79.31
2019-03-24T20:58:44.147Z,79.26
2019-03-24T21:01:18.743Z,79.44
2019-03-24T21:03:49.443Z,79.68
2019-03-24T21:06:21.654Z,80.12
2019-03-24T21:08:52.689Z,80.30
2019-03-24T21:11:23.749Z,80.78
2019-03-24T21:13:56.391Z,80.55
2019-03-24T21:16:27.716Z,81.09
2019-03-24T21:18:58.682Z,81.09
2019-03-24T21:21:30.101Z,80.88
2019-03-24T21:24:00.996Z,80.77
2019-03-24T21:26:32.047Z,81.35
2019-03-24T21:29:02.925Z,80.90
2019-03-24T21:31:33.940Z,81.63
2019-03-24T21:34:04.988Z,81.45
2019-03-24T21:36:36.946Z,81.63
2019-03-24T21:39:09.038Z,81.78
2019-03-24T21:41:40.006Z,82.41
2019-03-24T21:44:11.651Z,81.96
2019-03-24T21:46:44.380Z,81.60
2019-03-24T21:49:15.447Z,81.48
2019-03-24T21:51:46.454Z,81.31
2019-03-24T21:54:18.972Z,81.36
2019-03-24T21:56:49.964Z,81.43
2019-03-24T21:59:20.912Z,81.49
2019-03-24T22:01:51.984Z,81.35
2019-03-24T22:04:58.744Z,81.62
2019-03-24T22:07:34.390Z,81.34
2019-03-24T22:13:40.734Z,80.38
2019-03-24T22:19:52.780Z,79.86
2019-03-24T22:22:11.815Z,80.22
2019-03-24T22:25:00.985Z,80.25
2019-03-24T22:34:04.362Z,80.73
2019-03-24T22:39:29.026Z,80.73
2019-03-24T22:41:59.973Z,81.02
2019-03-24T22:44:31.027Z,80.89
2019-03-24T22:47:01.977Z,80.71
2019-03-24T22:49:32.957Z,80.70
2019-03-24T22:52:07.458Z,80.60
2019-03-24T22:54:37.230Z,81.29
2019-03-24T22:57:08.440Z,81.72
2019-03-24T22:59:39.433Z,81.99
2019-03-24T23:02:12.116Z,82.53
2019-03-24T23:04:43.161Z,82.51
2019-03-24T23:07:14.281Z,82.69
2019-03-24T23:09:45.595Z,82.89
2019-03-24T23:12:16.637Z,83.33
2019-03-24T23:14:47.781Z,83.58
2019-03-24T23:17:18.687Z,83.55
2019-03-24T23:19:49.785Z,83.89
2019-03-24T23:22:20.820Z,83.99
2019-03-24T23:24:52.024Z,84.14
2019-03-24T23:27:23.215Z,84.28
2019-03-24T23:29:54.256Z,84.23
2019-03-24T23:32:25.221Z,84.31
2019-03-24T23:34:56.159Z,84.56
2019-03-24T23:37:27.191Z,84.96
2019-03-24T23:39:58.325Z,84.67
2019-03-24T23:42:29.349Z,84.86
2019-03-24T23:45:00.374Z,84.67
2019-03-24T23:47:31.307Z,84.80
2019-03-24T23:50:02.281Z,84.77
2019-03-24T23:52:33.335Z,85.01
2019-03-24T23:55:05.217Z,84.94
2019-03-24T23:57:36.271Z,84.61
